Grand Canyon National Park, AZ

00:41 MST le 26 octobre 2014 (GMT -0700)
KAZGRAND3 | Change Station
CLOSE
Current Station
Stations météorologiques personnelles
Location: Grand Canyon, AZ
Altitude: 6991 ft
Stations météo à proximité

Alt. 6991 ft 36.05 °N, 112.12 °W | Updated 2 seconds ago

Ciel dégagé
Ciel dégagé
51.3 ° F
Paraît 51.3 ° F
N
0.0
Vent Variable Vent de SSO
Gusts 1.0 mph

Aujourd'hui
Haut(e) -- | Bas -- ° F
--% Risque de précip.
Hier
Haut(e) -- | Bas -- ° F
Precip. -- pouce
6:45 AM 5:38 PM
Lune montante, 6% visible
Pression 30.02 pouce
Visibilité 10.0 Miles terrestres
Nuages Peu 4800 ft
Point de rosée 42 ° F
Humidité 70%
Précipitations 0.00 pouce
Profondeur de la couche neigeuse Non disponible.
UV 0 sur 12
Pollen 4.50 sur 12
Qualité de l'air Non disponible.
Flu Activity No Activity
METAR KGCN 260654Z AUTO 04003KT 10SM FEW048 06/03 A3022 RMK AO2 SLP164 T00560028 402171011

More Conditions Fewer Conditions

Pression 30.02 pouce
Visibilité 10.0 Miles terrestres
Nuages Peu 4800 ft
Point de rosée 42 ° F
Humidité 70%
Précipitations 0.00 pouce
Profondeur de la couche neigeuse Non disponible.
UV 0 sur 12
Pollen 4.50 sur 12
Qualité de l'air Non disponible.
Flu Activity No Activity
METAR KGCN 260654Z AUTO 04003KT 10SM FEW048 06/03 A3022 RMK AO2 SLP164 T00560028 402171011

More Conditions Fewer Conditions

10-Day Weather Forecast

Almanac

Astronomie

Oct. 26, 2014 Lever Coucher
Temps réel 06:45 MST 17:38 MST
Crépuscule civil 06:19 MST 18:05 MST
Crépuscule nautique 05:49 MST 18:35 MST
Crépuscule astronomique 05:19 MST 19:05 MST
Lune 09:23 MST 19:57 MST
Durée de lumière visible 11h 46m
Longueur du jour
10h 53m
Tomorrow will be 2m 5s shorter.
Lune montante, 6% of the Moon is Illuminated
Aujourd'hui
Lune montante
Oct 30
Premier quartier
Nov 6
Pleine lune
Nov 14
Dernier quartier
Nov 22
Nouveau

Extrêmes aujourd'hui

State Highs State Lows

Community

WunderPhotos

Upload Photos

1,765,115 Photos téléchargées !

Nearby

Épaisseur de neige

Station Depth Altitude
Snowslide Canyon 0 in 9730 ft
White Horse Lake 0 in 7180 ft
Mormon Mountain 0 in 7500 ft
Happy Jack 0 in 7630 ft
Baker Butte 0 in 7300 ft

Activité sismique

Ville Distance Mag. Time & Date
No recent earthquake activity has been reported nearby.
Minimum magnitude displayed is 2.5.

Températures des eaux côtières

Lieu Température
Aucun rapport de station

Stations météo à proximité